Terminal Aerodrome Forecast
Issued by NWS

Home | Current Version | Previous Version | Text Only | Print | Product List | Glossary On
Versions: 1 2 3 4 5 6 7 8 9 10 11 12 13 14 15 16
672
FTUS44 KJAN 231120
TAFHKS
TAF
KHKS 231120Z 2312/2412 18008G16KT P6SM VCSH BKN017 BKN030 OVC090
     FM231400 19012G22KT 5SM SHRA VCTS BKN025CB OVC090
     FM232100 21011G23KT P6SM VCTS SCT020 BKN030CB BKN090
     FM240000 21009KT P6SM VCTS BKN025CB OVC090
     FM240600 19004KT P6SM SHRA VCTS BKN025CB OVC090=

USA.gov is the U.S. government's official web portal to all federal, state and local government web resources and services.